Waterford, CT

4:19 PM EDT on August 31, 2015 (GMT -0400)
Smith Cove | | Change Station
CLOSE
Current Station
Personal Weather Station
Location: Quaker Hill, CT
Elevation: 25 ft
Nearby Weather Stations

Elev 25 ft 41.40 °N, 72.11 °W | Updated 12 minutes ago

Partly Cloudy
Partly Cloudy
88.4 °F
Feels Like 96 °F
N
4.0
Wind Variable Wind from SW
Gusts 7.0 mph

Today
High -- | Low -- °F
--% Chance of Precip.
Yesterday
High -- | Low -- °F
Precip. -- in
6:13 AM 7:23 PM
Waning Gibbous, 94% visible
Pressure 29.91 in
Visibility 10.0 miles
Clouds Clear
Heat Index 96 °F
Dew Point 72 °F
Humidity 59%
Rainfall in
Snow Depth Not available.
UV 2.3 out of 12
Pollen 9.60 out of 12
Air Quality Not available.
Flu Activity Not available.
METAR KGON 311956Z 24012KT 10SM CLR 29/21 A2991 RMK AO2 SLP129 T02890211
Pressure 29.91 in
Visibility 10.0 miles
Clouds Clear
Heat Index 96 °F
Dew Point 72 °F
Humidity 59%
Rainfall in
Snow Depth Not available.
UV 2.3 out of 12
Pollen 9.60 out of 12
Air Quality Not available.
Flu Activity Not available.
METAR KGON 311956Z 24012KT 10SM CLR 29/21 A2991 RMK AO2 SLP129 T02890211

10-Day Weather Forecast

×

Almanac

Astronomy

Aug. 31, 2015 Rise Set
Actual Time
Civil Twilight
Nautical Twilight
Astronomical Twilight
Moon
Length of Visible Light
Length of Day
Tomorrow will be .
, % of the Moon is Illuminated

Today's Extremes

State Highs State Lows

Community

WunderPhotos

Upload Photos

1,851,352 photos uploaded!

WunderBlogs® & News

Nearby

Air Quality

  Air Quality AQ Index Pollutant
Not available.

Snow Depth

Station Depth Elevation

Earthquake Activity

City Distance Mag. Time & Date
Minimum magnitude displayed is 2.5.

Coastal Water Temperatures

Place Temperature

Stations

Nearby Weather Stations

Station Location Temp. Windchill Dew Point Humidity Wind Precip. Elev Updated Type